createdAt,value
2022-08-03T00:01:30.183Z,18.82
2022-08-03T00:06:36.967Z,18.73
2022-08-03T00:11:41.443Z,18.64
2022-08-03T00:16:45.251Z,18.63
2022-08-03T00:21:49.024Z,18.61
2022-08-03T00:26:53.015Z,18.52
2022-08-03T00:31:59.580Z,18.51
2022-08-03T00:37:04.296Z,18.40
2022-08-03T00:42:08.391Z,18.40
2022-08-03T00:47:11.641Z,18.42
2022-08-03T00:52:15.260Z,18.29
2022-08-03T00:57:18.964Z,18.28
2022-08-03T01:02:23.024Z,18.28
2022-08-03T01:07:26.823Z,18.19
2022-08-03T01:12:31.279Z,18.15
2022-08-03T01:17:35.913Z,18.07
2022-08-03T01:22:51.491Z,18.04
2022-08-03T01:27:58.630Z,17.99
2022-08-03T01:33:03.556Z,17.95
2022-08-03T01:38:14.403Z,18.03
2022-08-03T01:43:55.349Z,17.87
2022-08-03T01:48:57.119Z,17.92
2022-08-03T01:54:00.954Z,17.94
2022-08-03T01:59:04.271Z,17.89
2022-08-03T02:04:07.886Z,17.92
2022-08-03T02:09:12.323Z,17.88
2022-08-03T02:14:15.663Z,17.77
2022-08-03T02:19:20.018Z,17.74
2022-08-03T02:24:23.400Z,17.71
2022-08-03T02:29:39.887Z,17.70
2022-08-03T02:34:44.187Z,17.69
2022-08-03T02:39:47.396Z,17.57
2022-08-03T02:44:50.954Z,17.55
2022-08-03T02:49:54.306Z,17.43
2022-08-03T02:54:58.538Z,17.29
2022-08-03T03:00:01.819Z,17.25
2022-08-03T03:05:54.546Z,17.21
2022-08-03T03:10:29.726Z,17.18
2022-08-03T03:15:35.821Z,17.14
2022-08-03T03:20:39.125Z,17.07
2022-08-03T03:25:42.451Z,16.99
2022-08-03T03:30:52.904Z,17.01
2022-08-03T03:35:57.364Z,16.92
2022-08-03T03:41:01.371Z,16.91
2022-08-03T03:46:05.123Z,17.04
2022-08-03T03:51:08.777Z,17.01
2022-08-03T03:56:11.988Z,17.01
2022-08-03T04:01:15.406Z,16.96
2022-08-03T04:06:36.774Z,17.00
2022-08-03T04:11:40.383Z,17.21
2022-08-03T04:17:00.494Z,17.45
2022-08-03T04:22:04.260Z,17.75
2022-08-03T04:27:08.788Z,18.16
2022-08-03T04:32:13.017Z,18.47
2022-08-03T04:37:16.463Z,18.80
2022-08-03T04:42:20.486Z,19.09
2022-08-03T04:47:23.906Z,19.33
2022-08-03T04:52:27.930Z,19.64
2022-08-03T04:57:31.946Z,19.86
2022-08-03T05:02:35.558Z,20.19
2022-08-03T05:07:38.893Z,20.50
2022-08-03T05:12:42.247Z,20.72
2022-08-03T05:17:45.837Z,20.94
2022-08-03T05:22:49.646Z,21.27
2022-08-03T05:27:53.191Z,21.40
2022-08-03T05:32:56.883Z,21.66
2022-08-03T05:38:00.700Z,21.99
2022-08-03T05:43:03.964Z,22.43
2022-08-03T05:48:07.113Z,22.45
2022-08-03T05:53:10.663Z,22.90
2022-08-03T05:58:14.863Z,22.86
2022-08-03T06:03:18.651Z,23.32
2022-08-03T06:08:24.798Z,23.57
2022-08-03T06:13:29.293Z,23.80
2022-08-03T06:18:33.670Z,23.69
2022-08-03T06:23:53.962Z,23.97
2022-08-03T06:28:59.287Z,24.35
2022-08-03T06:34:32.770Z,24.47
2022-08-03T06:39:28.719Z,24.21
2022-08-03T06:44:33.138Z,23.94
2022-08-03T06:49:37.889Z,23.97
2022-08-03T06:54:41.760Z,24.35
2022-08-03T07:00:10.939Z,24.34
2022-08-03T07:05:08.746Z,24.44
2022-08-03T07:10:13.170Z,24.36
2022-08-03T07:15:20.167Z,24.75
2022-08-03T07:20:41.935Z,24.79
2022-08-03T07:25:45.654Z,24.60
2022-08-03T07:30:49.674Z,24.91
2022-08-03T07:35:52.942Z,25.06
2022-08-03T07:40:56.688Z,25.52
2022-08-03T07:46:00.426Z,26.14
2022-08-03T07:51:06.315Z,26.52
2022-08-03T07:56:11.293Z,26.03
2022-08-03T08:01:15.625Z,26.08
2022-08-03T08:06:20.040Z,26.35
2022-08-03T08:11:23.422Z,25.84
2022-08-03T08:16:26.794Z,25.86
2022-08-03T08:21:54.073Z,26.64
2022-08-03T08:26:54.558Z,26.66
2022-08-03T08:31:58.222Z,27.08
2022-08-03T08:37:02.132Z,27.63
2022-08-03T08:42:05.397Z,27.40
2022-08-03T08:47:08.629Z,27.17
2022-08-03T08:52:25.153Z,26.90
2022-08-03T08:57:42.416Z,27.02
2022-08-03T09:02:46.346Z,27.78
2022-08-03T09:07:49.581Z,27.79
2022-08-03T09:12:52.831Z,28.35
2022-08-03T09:17:56.332Z,28.27
2022-08-03T09:23:00.103Z,28.21
2022-08-03T09:28:03.531Z,28.15
2022-08-03T09:33:08.429Z,27.99
2022-08-03T09:38:14.183Z,28.54
2022-08-03T09:43:18.121Z,28.47
2022-08-03T09:48:21.811Z,28.71
2022-08-03T09:53:25.136Z,28.96
2022-08-03T09:58:28.386Z,28.95
2022-08-03T10:03:31.744Z,29.13
2022-08-03T10:08:35.117Z,29.16
2022-08-03T10:13:38.803Z,29.13
2022-08-03T10:18:42.387Z,29.15
2022-08-03T10:23:46.140Z,28.98
2022-08-03T10:28:49.422Z,28.88
2022-08-03T10:33:53.589Z,29.14
2022-08-03T10:38:57.532Z,29.06
2022-08-03T10:44:01.216Z,29.06
2022-08-03T10:49:05.008Z,29.52
2022-08-03T10:54:10.679Z,29.79
2022-08-03T10:59:27.928Z,30.91
2022-08-03T11:04:31.660Z,30.53
2022-08-03T11:09:35.776Z,31.34
2022-08-03T11:14:39.009Z,31.18
2022-08-03T11:19:57.503Z,31.31
2022-08-03T11:25:01.864Z,31.48
2022-08-03T11:30:05.367Z,31.12
2022-08-03T11:35:08.723Z,31.16
2022-08-03T11:40:12.517Z,30.23
2022-08-03T11:45:17.247Z,29.81
2022-08-03T11:50:21.598Z,30.00
2022-08-03T11:55:30.300Z,29.99
2022-08-03T12:00:33.984Z,30.14
2022-08-03T12:05:37.654Z,30.09
2022-08-03T12:10:42.716Z,30.18
2022-08-03T12:15:46.475Z,30.05
2022-08-03T12:20:50.334Z,30.10
2022-08-03T12:25:53.631Z,30.59
2022-08-03T12:30:58.820Z,30.58
2022-08-03T12:36:02.070Z,30.81
2022-08-03T12:41:05.776Z,30.95
2022-08-03T12:46:09.058Z,31.09
2022-08-03T12:51:12.504Z,30.54
2022-08-03T12:56:15.821Z,30.56
2022-08-03T13:01:19.332Z,30.91
2022-08-03T13:06:23.606Z,30.94
2022-08-03T13:11:50.532Z,30.98
2022-08-03T13:16:50.400Z,30.69
2022-08-03T13:22:03.899Z,31.16
2022-08-03T13:27:22.458Z,31.53
2022-08-03T13:32:31.875Z,31.21
2022-08-03T13:37:35.142Z,30.55
2022-08-03T13:42:38.921Z,30.71
2022-08-03T13:47:42.318Z,30.97
2022-08-03T13:52:46.739Z,31.09
2022-08-03T13:58:06.292Z,31.36
2022-08-03T14:03:14.922Z,31.27
2022-08-03T14:08:18.547Z,31.20
2022-08-03T14:13:22.974Z,31.50
2022-08-03T14:18:27.605Z,31.39
2022-08-03T14:23:38.052Z,31.05
2022-08-03T14:28:41.479Z,31.08
2022-08-03T14:33:45.204Z,30.98
2022-08-03T14:38:49.077Z,31.00
2022-08-03T14:44:00.615Z,30.90
2022-08-03T14:50:37.795Z,31.08
2022-08-03T14:54:31.997Z,31.17
2022-08-03T14:59:55.776Z,31.18
2022-08-03T15:04:59.818Z,31.31
2022-08-03T15:10:03.464Z,31.66
2022-08-03T15:15:06.789Z,31.19
2022-08-03T15:20:27.760Z,31.13
2022-08-03T15:26:28.507Z,31.25
2022-08-03T15:30:57.427Z,31.50
2022-08-03T15:36:01.204Z,31.43
2022-08-03T15:41:04.834Z,31.38
2022-08-03T15:46:28.739Z,31.10
2022-08-03T15:51:32.678Z,31.15
2022-08-03T15:56:35.931Z,30.86
2022-08-03T16:01:39.683Z,30.77
2022-08-03T16:06:44.141Z,30.40
2022-08-03T16:11:48.067Z,30.21
2022-08-03T16:16:53.307Z,30.29
2022-08-03T16:21:56.944Z,30.05
2022-08-03T16:27:01.152Z,30.06
2022-08-03T16:32:09.403Z,29.87
2022-08-03T16:37:37.133Z,29.79
2022-08-03T16:42:36.308Z,29.55
2022-08-03T16:47:40.355Z,29.50
2022-08-03T16:52:47.531Z,29.48
2022-08-03T16:57:59.264Z,29.29
2022-08-03T17:03:04.343Z,29.10
2022-08-03T17:08:09.029Z,29.06
2022-08-03T17:13:22.504Z,28.96
2022-08-03T17:18:27.008Z,28.85
2022-08-03T17:23:35.556Z,28.72
2022-08-03T17:28:49.150Z,28.66
2022-08-03T17:33:56.557Z,28.56
2022-08-03T17:39:00.264Z,28.47
2022-08-03T17:44:15.948Z,28.41
2022-08-03T17:49:29.104Z,28.25
2022-08-03T17:54:34.999Z,28.15
2022-08-03T17:59:58.737Z,28.02
2022-08-03T18:05:17.214Z,27.87
2022-08-03T18:10:21.676Z,27.69
2022-08-03T18:15:25.111Z,27.57
2022-08-03T18:20:34.220Z,27.34
2022-08-03T18:25:50.064Z,27.28
2022-08-03T18:30:57.764Z,27.02
2022-08-03T18:36:00.997Z,26.71
2022-08-03T18:41:12.706Z,26.60
2022-08-03T18:46:20.804Z,26.47
2022-08-03T18:51:33.871Z,26.21
2022-08-03T18:56:39.063Z,26.13
2022-08-03T19:01:57.871Z,25.95
2022-08-03T19:07:07.972Z,25.72
2022-08-03T19:12:26.585Z,25.73
2022-08-03T19:17:35.091Z,25.59
2022-08-03T19:22:39.653Z,25.44
2022-08-03T19:27:49.159Z,25.31
2022-08-03T19:32:53.398Z,25.21
2022-08-03T19:37:57.118Z,25.14
2022-08-03T19:43:04.555Z,24.91
2022-08-03T19:48:10.107Z,24.71
2022-08-03T19:53:13.418Z,24.61
2022-08-03T19:58:20.283Z,24.56
2022-08-03T20:03:42.946Z,24.42
2022-08-03T20:08:48.226Z,24.32
2022-08-03T20:13:55.476Z,24.27
2022-08-03T20:18:59.585Z,24.06
2022-08-03T20:24:24.449Z,23.90
2022-08-03T20:34:53.328Z,23.77
2022-08-03T20:39:57.281Z,23.67
2022-08-03T20:45:05.564Z,23.54
2022-08-03T20:50:10.163Z,23.45
2022-08-03T20:55:14.798Z,23.43
2022-08-03T21:00:21.860Z,23.40
2022-08-03T21:05:47.663Z,23.30
2022-08-03T21:10:50.603Z,23.15
2022-08-03T21:13:12.389Z,23.86
2022-08-03T21:16:01.331Z,23.08
2022-08-03T21:21:18.112Z,23.17
2022-08-03T21:26:21.402Z,23.17
2022-08-03T21:31:26.569Z,23.16
2022-08-03T21:36:30.605Z,23.11
2022-08-03T21:41:33.895Z,23.02
2022-08-03T21:46:43.647Z,23.08
2022-08-03T21:51:48.148Z,22.97
2022-08-03T21:56:51.948Z,22.91
2022-08-03T22:01:58.587Z,22.84
2022-08-03T22:07:01.991Z,22.83
2022-08-03T22:12:06.347Z,22.62
2022-08-03T22:17:09.612Z,22.55
2022-08-03T22:22:14.666Z,22.39
2022-08-03T22:27:34.305Z,22.27
2022-08-03T22:32:38.065Z,22.32
2022-08-03T22:37:41.738Z,22.18
2022-08-03T22:42:46.173Z,22.12
2022-08-03T22:47:49.843Z,21.89
2022-08-03T22:52:53.899Z,21.84
2022-08-03T22:57:57.125Z,21.79
2022-08-03T23:03:01.060Z,21.64
2022-08-03T23:08:04.747Z,21.57
2022-08-03T23:13:08.061Z,21.55
2022-08-03T23:18:11.749Z,21.50
2022-08-03T23:23:15.391Z,21.32
2022-08-03T23:28:23.578Z,21.30
2022-08-03T23:33:27.226Z,21.23
2022-08-03T23:38:30.800Z,21.20
2022-08-03T23:43:52.347Z,21.09
2022-08-03T23:48:57.410Z,21.04
2022-08-03T23:54:02.310Z,20.91
2022-08-03T23:59:05.691Z,20.94
